sensor_id;sensor_type;location;lat;lon;timestamp;pressure;altitude;pressure_sealevel;temperature;humidity
20628;BME280;10473;42.734;24.258;2023-05-29T00:00:53;91692.28;;;15.17;79.46
20628;BME280;10473;42.734;24.258;2023-05-29T00:03:21;91695.56;;;15.28;79.48
20628;BME280;10473;42.734;24.258;2023-05-29T00:05:48;91698.13;;;15.42;79.29
20628;BME280;10473;42.734;24.258;2023-05-29T00:08:17;91693.50;;;15.46;78.79
20628;BME280;10473;42.734;24.258;2023-05-29T00:10:44;91683.16;;;15.51;78.19
20628;BME280;10473;42.734;24.258;2023-05-29T00:13:12;91675.59;;;15.43;78.03
20628;BME280;10473;42.734;24.258;2023-05-29T00:15:41;91685.31;;;15.60;78.20
20628;BME280;10473;42.734;24.258;2023-05-29T00:18:10;91689.94;;;15.56;77.97
20628;BME280;10473;42.734;24.258;2023-05-29T00:20:38;91695.34;;;15.52;77.18
20628;BME280;10473;42.734;24.258;2023-05-29T00:23:06;91695.09;;;15.40;77.59
20628;BME280;10473;42.734;24.258;2023-05-29T00:25:33;91692.44;;;15.40;78.01
20628;BME280;10473;42.734;24.258;2023-05-29T00:28:01;91677.03;;;15.51;76.50
20628;BME280;10473;42.734;24.258;2023-05-29T00:30:29;91681.16;;;15.59;73.61
20628;BME280;10473;42.734;24.258;2023-05-29T00:32:58;91679.38;;;15.45;76.51
20628;BME280;10473;42.734;24.258;2023-05-29T00:35:26;91683.25;;;15.41;77.53
20628;BME280;10473;42.734;24.258;2023-05-29T00:37:53;91688.72;;;15.60;76.68
20628;BME280;10473;42.734;24.258;2023-05-29T00:40:21;91682.25;;;15.61;76.55
20628;BME280;10473;42.734;24.258;2023-05-29T00:42:49;91692.88;;;15.65;76.33
20628;BME280;10473;42.734;24.258;2023-05-29T00:45:17;91694.63;;;15.48;77.87
20628;BME280;10473;42.734;24.258;2023-05-29T00:47:45;91691.34;;;15.34;78.89
20628;BME280;10473;42.734;24.258;2023-05-29T00:50:15;91692.88;;;15.35;78.33
20628;BME280;10473;42.734;24.258;2023-05-29T00:52:44;91698.06;;;15.49;76.60
20628;BME280;10473;42.734;24.258;2023-05-29T00:55:13;91703.03;;;15.47;76.71
20628;BME280;10473;42.734;24.258;2023-05-29T00:57:42;91693.84;;;15.48;77.16
20628;BME280;10473;42.734;24.258;2023-05-29T01:00:12;91694.22;;;15.50;77.54
20628;BME280;10473;42.734;24.258;2023-05-29T01:02:44;91679.81;;;15.44;77.36
20628;BME280;10473;42.734;24.258;2023-05-29T01:05:13;91696.22;;;15.42;77.64
20628;BME280;10473;42.734;24.258;2023-05-29T01:07:42;91685.53;;;15.42;77.80
20628;BME280;10473;42.734;24.258;2023-05-29T01:10:10;91683.16;;;15.48;78.10
20628;BME280;10473;42.734;24.258;2023-05-29T01:12:44;91678.41;;;15.62;77.89
20628;BME280;10473;42.734;24.258;2023-05-29T01:15:19;91688.34;;;15.62;77.94
20628;BME280;10473;42.734;24.258;2023-05-29T01:18:08;91679.44;;;15.72;77.73
20628;BME280;10473;42.734;24.258;2023-05-29T01:20:44;91678.31;;;15.69;77.63
20628;BME280;10473;42.734;24.258;2023-05-29T01:23:33;91675.13;;;15.51;78.62
20628;BME280;10473;42.734;24.258;2023-05-29T01:29:18;91665.47;;;15.61;77.52
20628;BME280;10473;42.734;24.258;2023-05-29T01:31:49;91660.97;;;15.54;77.54
20628;BME280;10473;42.734;24.258;2023-05-29T01:34:17;91654.91;;;15.50;78.22
20628;BME280;10473;42.734;24.258;2023-05-29T01:36:45;91647.63;;;15.21;79.40
20628;BME280;10473;42.734;24.258;2023-05-29T01:39:14;91650.28;;;15.21;79.84
20628;BME280;10473;42.734;24.258;2023-05-29T01:41:43;91647.09;;;14.99;80.51
20628;BME280;10473;42.734;24.258;2023-05-29T01:44:12;91644.22;;;14.83;81.40
20628;BME280;10473;42.734;24.258;2023-05-29T01:46:42;91641.81;;;14.96;81.22
20628;BME280;10473;42.734;24.258;2023-05-29T01:49:13;91658.25;;;14.91;81.38
20628;BME280;10473;42.734;24.258;2023-05-29T01:51:43;91651.75;;;14.92;80.34
20628;BME280;10473;42.734;24.258;2023-05-29T01:54:10;91652.19;;;14.87;81.08
20628;BME280;10473;42.734;24.258;2023-05-29T01:56:38;91644.03;;;15.01;80.56
20628;BME280;10473;42.734;24.258;2023-05-29T01:59:07;91645.44;;;15.12;79.44
20628;BME280;10473;42.734;24.258;2023-05-29T02:01:38;91646.84;;;14.87;80.20
20628;BME280;10473;42.734;24.258;2023-05-29T02:04:07;91650.44;;;14.70;80.95
20628;BME280;10473;42.734;24.258;2023-05-29T02:06:35;91649.06;;;14.55;81.63
20628;BME280;10473;42.734;24.258;2023-05-29T02:09:03;91649.44;;;14.57;81.81
20628;BME280;10473;42.734;24.258;2023-05-29T02:11:32;91641.59;;;14.39;81.68
20628;BME280;10473;42.734;24.258;2023-05-29T02:14:00;91649.00;;;14.62;81.34
20628;BME280;10473;42.734;24.258;2023-05-29T02:16:30;91646.78;;;14.57;81.97
20628;BME280;10473;42.734;24.258;2023-05-29T02:19:00;91646.69;;;14.64;81.05
20628;BME280;10473;42.734;24.258;2023-05-29T02:21:30;91654.38;;;14.58;80.79
20628;BME280;10473;42.734;24.258;2023-05-29T02:23:57;91653.13;;;14.66;80.86
20628;BME280;10473;42.734;24.258;2023-05-29T02:26:25;91655.50;;;14.61;81.17
20628;BME280;10473;42.734;24.258;2023-05-29T02:28:53;91663.50;;;14.61;81.26
20628;BME280;10473;42.734;24.258;2023-05-29T02:31:20;91648.63;;;14.63;80.63
20628;BME280;10473;42.734;24.258;2023-05-29T02:33:48;91649.00;;;14.62;80.62
20628;BME280;10473;42.734;24.258;2023-05-29T02:36:16;91623.75;;;14.70;80.28
20628;BME280;10473;42.734;24.258;2023-05-29T02:38:45;91642.28;;;14.47;79.88
20628;BME280;10473;42.734;24.258;2023-05-29T02:41:13;91648.75;;;14.49;80.31
20628;BME280;10473;42.734;24.258;2023-05-29T02:43:41;91641.44;;;14.57;79.78
20628;BME280;10473;42.734;24.258;2023-05-29T02:46:08;91648.00;;;14.45;79.64
20628;BME280;10473;42.734;24.258;2023-05-29T02:48:36;91647.75;;;14.33;79.84
20628;BME280;10473;42.734;24.258;2023-05-29T02:51:05;91653.91;;;14.23;81.22
20628;BME280;10473;42.734;24.258;2023-05-29T02:53:33;91644.56;;;14.45;80.83
20628;BME280;10473;42.734;24.258;2023-05-29T02:56:02;91641.56;;;14.43;80.68
20628;BME280;10473;42.734;24.258;2023-05-29T02:58:30;91653.06;;;14.33;80.91
20628;BME280;10473;42.734;24.258;2023-05-29T03:00:59;91655.19;;;14.01;82.44
20628;BME280;10473;42.734;24.258;2023-05-29T03:03:28;91655.06;;;14.22;81.84
20628;BME280;10473;42.734;24.258;2023-05-29T03:05:56;91654.34;;;14.14;81.02
20628;BME280;10473;42.734;24.258;2023-05-29T03:08:24;91651.25;;;14.23;80.59
20628;BME280;10473;42.734;24.258;2023-05-29T03:10:54;91659.44;;;13.91;81.45
20628;BME280;10473;42.734;24.258;2023-05-29T03:13:24;91667.78;;;13.97;82.02
20628;BME280;10473;42.734;24.258;2023-05-29T03:16:00;91663.81;;;14.22;79.92
20628;BME280;10473;42.734;24.258;2023-05-29T03:18:28;91672.19;;;14.24;79.41
20628;BME280;10473;42.734;24.258;2023-05-29T03:20:56;91675.69;;;14.11;80.92
20628;BME280;10473;42.734;24.258;2023-05-29T03:23:25;91657.66;;;14.29;80.71
20628;BME280;10473;42.734;24.258;2023-05-29T03:25:52;91665.56;;;14.43;79.57
20628;BME280;10473;42.734;24.258;2023-05-29T03:28:20;91681.16;;;14.44;79.55
20628;BME280;10473;42.734;24.258;2023-05-29T03:30:50;91682.31;;;14.40;80.56
20628;BME280;10473;42.734;24.258;2023-05-29T03:33:20;91689.06;;;14.55;80.11
20628;BME280;10473;42.734;24.258;2023-05-29T03:36:02;91695.94;;;14.52;79.74
20628;BME280;10473;42.734;24.258;2023-05-29T03:38:30;91698.59;;;14.56;78.84
20628;BME280;10473;42.734;24.258;2023-05-29T03:40:59;91699.44;;;14.46;77.53
20628;BME280;10473;42.734;24.258;2023-05-29T03:43:27;91699.44;;;14.42;77.27
20628;BME280;10473;42.734;24.258;2023-05-29T03:45:56;91705.34;;;14.64;77.63
20628;BME280;10473;42.734;24.258;2023-05-29T03:48:28;91702.97;;;14.76;78.16
20628;BME280;10473;42.734;24.258;2023-05-29T03:50:56;91700.56;;;14.89;78.26
20628;BME280;10473;42.734;24.258;2023-05-29T03:53:35;91694.78;;;14.94;77.76
20628;BME280;10473;42.734;24.258;2023-05-29T03:56:03;91691.00;;;14.91;78.76
20628;BME280;10473;42.734;24.258;2023-05-29T03:58:32;91684.41;;;15.03;77.91
20628;BME280;10473;42.734;24.258;2023-05-29T04:01:02;91698.78;;;15.16;77.06
20628;BME280;10473;42.734;24.258;2023-05-29T04:03:31;91702.59;;;15.15;77.46
20628;BME280;10473;42.734;24.258;2023-05-29T04:05:59;91698.19;;;15.31;76.65
20628;BME280;10473;42.734;24.258;2023-05-29T04:08:27;91698.59;;;15.33;75.76
20628;BME280;10473;42.734;24.258;2023-05-29T04:10:54;91686.41;;;15.29;74.52
20628;BME280;10473;42.734;24.258;2023-05-29T04:13:22;91681.44;;;15.31;73.32
20628;BME280;10473;42.734;24.258;2023-05-29T04:15:50;91687.47;;;15.38;74.34
20628;BME280;10473;42.734;24.258;2023-05-29T04:18:20;91675.59;;;15.43;74.63
20628;BME280;10473;42.734;24.258;2023-05-29T04:20:48;91695.00;;;15.47;72.58
20628;BME280;10473;42.734;24.258;2023-05-29T04:23:17;91704.03;;;15.60;73.76
20628;BME280;10473;42.734;24.258;2023-05-29T04:25:45;91691.59;;;15.46;74.99
20628;BME280;10473;42.734;24.258;2023-05-29T04:28:16;91680.06;;;15.53;75.08
20628;BME280;10473;42.734;24.258;2023-05-29T04:30:47;91683.22;;;15.44;74.81
20628;BME280;10473;42.734;24.258;2023-05-29T04:33:17;91688.50;;;15.78;73.53
20628;BME280;10473;42.734;24.258;2023-05-29T04:35:49;91681.31;;;15.75;71.33
20628;BME280;10473;42.734;24.258;2023-05-29T04:38:20;91693.47;;;16.06;70.40
20628;BME280;10473;42.734;24.258;2023-05-29T04:40:53;91683.81;;;16.15;68.64
20628;BME280;10473;42.734;24.258;2023-05-29T04:43:25;91693.06;;;16.34;66.56
20628;BME280;10473;42.734;24.258;2023-05-29T04:46:04;91696.59;;;16.27;68.49
20628;BME280;10473;42.734;24.258;2023-05-29T04:48:36;91697.06;;;16.49;67.35
20628;BME280;10473;42.734;24.258;2023-05-29T04:51:09;91692.03;;;16.77;69.58
20628;BME280;10473;42.734;24.258;2023-05-29T04:53:38;91706.50;;;16.57;69.95
20628;BME280;10473;42.734;24.258;2023-05-29T04:56:07;91705.75;;;16.79;68.16
20628;BME280;10473;42.734;24.258;2023-05-29T04:58:35;91701.47;;;17.05;68.30
20628;BME280;10473;42.734;24.258;2023-05-29T05:01:04;91710.31;;;17.25;66.12
20628;BME280;10473;42.734;24.258;2023-05-29T05:03:34;91715.94;;;17.53;65.19
20628;BME280;10473;42.734;24.258;2023-05-29T05:06:03;91729.31;;;17.73;62.33
20628;BME280;10473;42.734;24.258;2023-05-29T05:08:34;91714.22;;;17.63;64.54
20628;BME280;10473;42.734;24.258;2023-05-29T05:11:02;91734.69;;;17.53;63.31
20628;BME280;10473;42.734;24.258;2023-05-29T05:13:30;91723.50;;;17.35;65.09
20628;BME280;10473;42.734;24.258;2023-05-29T05:15:58;91726.38;;;17.25;65.14
20628;BME280;10473;42.734;24.258;2023-05-29T05:18:26;91728.56;;;17.30;66.13
20628;BME280;10473;42.734;24.258;2023-05-29T05:21:01;91736.28;;;17.28;63.04
20628;BME280;10473;42.734;24.258;2023-05-29T05:23:30;91733.94;;;17.30;64.49
20628;BME280;10473;42.734;24.258;2023-05-29T05:25:59;91726.28;;;17.51;61.25
20628;BME280;10473;42.734;24.258;2023-05-29T05:28:27;91719.41;;;17.70;61.89
20628;BME280;10473;42.734;24.258;2023-05-29T05:30:54;91726.50;;;17.99;61.11
20628;BME280;10473;42.734;24.258;2023-05-29T05:33:23;91716.59;;;18.32;60.93
20628;BME280;10473;42.734;24.258;2023-05-29T05:35:51;91719.19;;;18.55;58.16
20628;BME280;10473;42.734;24.258;2023-05-29T05:38:19;91721.34;;;18.92;57.93
20628;BME280;10473;42.734;24.258;2023-05-29T05:40:47;91707.66;;;19.18;56.80
20628;BME280;10473;42.734;24.258;2023-05-29T05:43:23;91715.91;;;19.56;56.23
20628;BME280;10473;42.734;24.258;2023-05-29T05:46:07;91743.09;;;19.74;53.92
20628;BME280;10473;42.734;24.258;2023-05-29T05:48:36;91730.63;;;19.23;54.40
20628;BME280;10473;42.734;24.258;2023-05-29T05:51:04;91739.66;;;19.29;55.10
20628;BME280;10473;42.734;24.258;2023-05-29T05:53:32;91744.69;;;19.27;53.90
20628;BME280;10473;42.734;24.258;2023-05-29T05:56:00;91756.19;;;19.11;54.07
20628;BME280;10473;42.734;24.258;2023-05-29T05:58:30;91746.38;;;19.05;54.77
20628;BME280;10473;42.734;24.258;2023-05-29T06:00:58;91730.50;;;19.10;55.50
20628;BME280;10473;42.734;24.258;2023-05-29T06:03:27;91727.91;;;19.07;55.80
20628;BME280;10473;42.734;24.258;2023-05-29T06:06:01;91745.03;;;18.97;55.59
20628;BME280;10473;42.734;24.258;2023-05-29T06:08:29;91728.59;;;18.95;55.28
20628;BME280;10473;42.734;24.258;2023-05-29T06:10:58;91722.19;;;19.05;56.54
20628;BME280;10473;42.734;24.258;2023-05-29T06:13:26;91719.66;;;18.98;55.58
20628;BME280;10473;42.734;24.258;2023-05-29T06:16:05;91713.28;;;19.08;55.35
20628;BME280;10473;42.734;24.258;2023-05-29T06:18:33;91731.50;;;19.00;55.22
20628;BME280;10473;42.734;24.258;2023-05-29T06:21:01;91739.31;;;18.95;54.26
20628;BME280;10473;42.734;24.258;2023-05-29T06:23:30;91745.38;;;18.99;54.14
20628;BME280;10473;42.734;24.258;2023-05-29T06:25:58;91751.72;;;18.73;56.02
20628;BME280;10473;42.734;24.258;2023-05-29T06:28:26;91755.59;;;19.04;57.03
20628;BME280;10473;42.734;24.258;2023-05-29T06:30:55;91741.56;;;18.64;55.51
20628;BME280;10473;42.734;24.258;2023-05-29T06:33:25;91749.13;;;18.69;56.47
20628;BME280;10473;42.734;24.258;2023-05-29T06:35:53;91747.19;;;19.02;57.20
20628;BME280;10473;42.734;24.258;2023-05-29T06:38:21;91747.38;;;19.27;57.60
20628;BME280;10473;42.734;24.258;2023-05-29T06:40:49;91747.94;;;19.34;55.78
20628;BME280;10473;42.734;24.258;2023-05-29T06:43:16;91755.94;;;19.22;56.41
20628;BME280;10473;42.734;24.258;2023-05-29T06:45:48;91757.44;;;19.39;55.89
20628;BME280;10473;42.734;24.258;2023-05-29T06:48:17;91763.50;;;18.95;55.15
20628;BME280;10473;42.734;24.258;2023-05-29T06:50:48;91763.00;;;18.84;56.88
20628;BME280;10473;42.734;24.258;2023-05-29T06:53:55;91759.03;;;18.56;57.25
20628;BME280;10473;42.734;24.258;2023-05-29T06:56:24;91769.81;;;18.53;57.94
20628;BME280;10473;42.734;24.258;2023-05-29T06:58:52;91759.34;;;18.58;56.86
20628;BME280;10473;42.734;24.258;2023-05-29T07:01:21;91756.84;;;18.83;56.55
20628;BME280;10473;42.734;24.258;2023-05-29T07:03:58;91755.84;;;19.09;55.37
20628;BME280;10473;42.734;24.258;2023-05-29T07:06:27;91755.13;;;19.25;56.00
20628;BME280;10473;42.734;24.258;2023-05-29T07:08:55;91761.38;;;19.18;55.98
20628;BME280;10473;42.734;24.258;2023-05-29T07:11:23;91760.19;;;19.19;55.66
20628;BME280;10473;42.734;24.258;2023-05-29T07:13:53;91754.41;;;19.21;54.51
20628;BME280;10473;42.734;24.258;2023-05-29T07:16:21;91741.84;;;19.34;54.53
20628;BME280;10473;42.734;24.258;2023-05-29T07:18:49;91754.00;;;19.67;54.47
20628;BME280;10473;42.734;24.258;2023-05-29T07:21:17;91753.44;;;19.59;53.82
20628;BME280;10473;42.734;24.258;2023-05-29T07:23:47;91745.31;;;19.63;54.58
20628;BME280;10473;42.734;24.258;2023-05-29T07:26:15;91753.31;;;19.50;54.24
20628;BME280;10473;42.734;24.258;2023-05-29T07:28:42;91741.81;;;19.50;55.03
20628;BME280;10473;42.734;24.258;2023-05-29T07:31:11;91765.78;;;19.73;56.22
20628;BME280;10473;42.734;24.258;2023-05-29T07:33:39;91758.34;;;19.77;54.96
20628;BME280;10473;42.734;24.258;2023-05-29T07:36:08;91752.88;;;19.52;53.66
20628;BME280;10473;42.734;24.258;2023-05-29T07:38:35;91754.00;;;19.67;53.98
20628;BME280;10473;42.734;24.258;2023-05-29T07:41:05;91766.56;;;19.86;53.17
20628;BME280;10473;42.734;24.258;2023-05-29T07:43:36;91774.91;;;20.04;52.83
20628;BME280;10473;42.734;24.258;2023-05-29T07:46:06;91773.66;;;19.80;53.39
20628;BME280;10473;42.734;24.258;2023-05-29T07:48:37;91789.97;;;19.73;54.56
20628;BME280;10473;42.734;24.258;2023-05-29T07:51:05;91784.09;;;19.62;53.54
20628;BME280;10473;42.734;24.258;2023-05-29T07:53:37;91789.09;;;19.47;54.21
20628;BME280;10473;42.734;24.258;2023-05-29T07:56:07;91785.09;;;19.23;53.74
20628;BME280;10473;42.734;24.258;2023-05-29T07:58:34;91780.09;;;19.06;54.25
20628;BME280;10473;42.734;24.258;2023-05-29T08:01:02;91785.66;;;19.15;54.03
20628;BME280;10473;42.734;24.258;2023-05-29T08:03:32;91785.28;;;19.13;52.99
20628;BME280;10473;42.734;24.258;2023-05-29T08:06:14;91791.28;;;19.36;54.05
20628;BME280;10473;42.734;24.258;2023-05-29T08:08:42;91797.94;;;19.48;51.73
20628;BME280;10473;42.734;24.258;2023-05-29T08:11:12;91795.22;;;19.48;52.54
20628;BME280;10473;42.734;24.258;2023-05-29T08:13:40;91792.69;;;19.57;52.28
20628;BME280;10473;42.734;24.258;2023-05-29T08:16:08;91792.56;;;19.76;53.06
20628;BME280;10473;42.734;24.258;2023-05-29T08:18:36;91793.81;;;19.72;52.41
20628;BME280;10473;42.734;24.258;2023-05-29T08:21:04;91797.53;;;19.78;52.44
20628;BME280;10473;42.734;24.258;2023-05-29T08:23:31;91795.00;;;19.87;52.90
20628;BME280;10473;42.734;24.258;2023-05-29T08:25:59;91800.06;;;19.97;53.31
20628;BME280;10473;42.734;24.258;2023-05-29T08:28:30;91800.84;;;19.98;51.39
20628;BME280;10473;42.734;24.258;2023-05-29T08:30:57;91795.56;;;20.23;51.46
20628;BME280;10473;42.734;24.258;2023-05-29T08:33:25;91798.28;;;20.35;51.07
20628;BME280;10473;42.734;24.258;2023-05-29T08:35:53;91795.22;;;20.21;50.88
20628;BME280;10473;42.734;24.258;2023-05-29T08:38:20;91794.78;;;20.22;50.79
20628;BME280;10473;42.734;24.258;2023-05-29T08:40:48;91781.19;;;19.85;50.74
20628;BME280;10473;42.734;24.258;2023-05-29T08:43:19;91789.88;;;20.05;51.88
20628;BME280;10473;42.734;24.258;2023-05-29T08:45:53;91776.69;;;20.10;52.55
20628;BME280;10473;42.734;24.258;2023-05-29T08:48:23;91782.34;;;20.41;52.32
20628;BME280;10473;42.734;24.258;2023-05-29T08:50:53;91785.78;;;20.29;51.15
20628;BME280;10473;42.734;24.258;2023-05-29T08:53:23;91791.63;;;20.52;51.95
20628;BME280;10473;42.734;24.258;2023-05-29T08:55:52;91786.34;;;20.49;50.00
20628;BME280;10473;42.734;24.258;2023-05-29T08:58:20;91781.88;;;20.71;50.61
20628;BME280;10473;42.734;24.258;2023-05-29T09:00:50;91780.53;;;20.38;51.29
20628;BME280;10473;42.734;24.258;2023-05-29T09:03:18;91777.03;;;20.25;51.52
20628;BME280;10473;42.734;24.258;2023-05-29T09:05:48;91779.88;;;20.05;52.06
20628;BME280;10473;42.734;24.258;2023-05-29T09:08:17;91784.56;;;19.89;52.76
20628;BME280;10473;42.734;24.258;2023-05-29T09:10:45;91787.97;;;19.61;54.31
20628;BME280;10473;42.734;24.258;2023-05-29T09:13:13;91785.91;;;19.81;53.75
20628;BME280;10473;42.734;24.258;2023-05-29T09:15:41;91791.53;;;19.58;55.28
20628;BME280;10473;42.734;24.258;2023-05-29T09:18:11;91791.47;;;19.74;53.92
20628;BME280;10473;42.734;24.258;2023-05-29T09:20:38;91788.84;;;19.86;53.80
20628;BME280;10473;42.734;24.258;2023-05-29T09:23:08;91784.50;;;19.76;53.72
20628;BME280;10473;42.734;24.258;2023-05-29T09:25:40;91782.63;;;19.45;54.91
20628;BME280;10473;42.734;24.258;2023-05-29T09:28:09;91776.66;;;19.21;54.85
20628;BME280;10473;42.734;24.258;2023-05-29T09:30:38;91780.97;;;19.19;55.70
20628;BME280;10473;42.734;24.258;2023-05-29T09:33:08;91778.88;;;19.26;56.14
20628;BME280;10473;42.734;24.258;2023-05-29T09:35:39;91778.28;;;19.19;55.50
20628;BME280;10473;42.734;24.258;2023-05-29T09:38:07;91767.78;;;19.24;56.71
20628;BME280;10473;42.734;24.258;2023-05-29T09:40:37;91771.66;;;19.23;56.30
20628;BME280;10473;42.734;24.258;2023-05-29T09:43:10;91771.38;;;19.18;56.34
20628;BME280;10473;42.734;24.258;2023-05-29T09:45:38;91766.03;;;19.34;56.16
20628;BME280;10473;42.734;24.258;2023-05-29T09:48:07;91768.84;;;19.11;56.28
20628;BME280;10473;42.734;24.258;2023-05-29T09:50:36;91765.00;;;18.96;56.39
20628;BME280;10473;42.734;24.258;2023-05-29T09:53:16;91765.09;;;18.92;57.99
20628;BME280;10473;42.734;24.258;2023-05-29T09:55:45;91759.22;;;18.81;57.73
20628;BME280;10473;42.734;24.258;2023-05-29T09:58:14;91757.09;;;18.73;59.49
20628;BME280;10473;42.734;24.258;2023-05-29T10:00:42;91770.69;;;18.66;59.72
20628;BME280;10473;42.734;24.258;2023-05-29T10:03:10;91778.63;;;18.53;60.15
20628;BME280;10473;42.734;24.258;2023-05-29T10:05:40;91769.91;;;18.49;60.92
20628;BME280;10473;42.734;24.258;2023-05-29T10:08:11;91778.09;;;18.23;62.54
20628;BME280;10473;42.734;24.258;2023-05-29T10:10:42;91778.78;;;18.27;63.45
20628;BME280;10473;42.734;24.258;2023-05-29T10:13:11;91783.63;;;18.16;65.29
20628;BME280;10473;42.734;24.258;2023-05-29T10:15:41;91773.38;;;17.91;67.11
20628;BME280;10473;42.734;24.258;2023-05-29T10:18:16;91770.00;;;17.68;67.91
20628;BME280;10473;42.734;24.258;2023-05-29T10:20:49;91769.03;;;17.35;68.06
20628;BME280;10473;42.734;24.258;2023-05-29T10:23:21;91774.09;;;17.30;66.94
20628;BME280;10473;42.734;24.258;2023-05-29T10:25:51;91774.47;;;17.09;68.11
20628;BME280;10473;42.734;24.258;2023-05-29T10:28:19;91770.91;;;16.92;69.26
20628;BME280;10473;42.734;24.258;2023-05-29T10:30:53;91780.41;;;16.97;69.99
20628;BME280;10473;42.734;24.258;2023-05-29T10:33:44;91782.47;;;16.86;72.55
20628;BME280;10473;42.734;24.258;2023-05-29T10:36:21;91787.63;;;16.77;74.60
20628;BME280;10473;42.734;24.258;2023-05-29T10:38:50;91774.97;;;16.77;75.98
20628;BME280;10473;42.734;24.258;2023-05-29T10:41:29;91784.69;;;16.68;75.65
20628;BME280;10473;42.734;24.258;2023-05-29T10:43:58;91772.34;;;16.74;77.36
20628;BME280;10473;42.734;24.258;2023-05-29T10:49:31;91779.78;;;16.89;70.56
20628;BME280;10473;42.734;24.258;2023-05-29T10:52:00;91766.78;;;16.88;68.36
20628;BME280;10473;42.734;24.258;2023-05-29T10:54:40;91766.56;;;17.02;69.20
20628;BME280;10473;42.734;24.258;2023-05-29T10:57:08;91777.16;;;17.09;66.79
20628;BME280;10473;42.734;24.258;2023-05-29T10:59:37;91757.94;;;17.14;65.31
20628;BME280;10473;42.734;24.258;2023-05-29T11:02:04;91761.66;;;17.43;65.22
20628;BME280;10473;42.734;24.258;2023-05-29T11:04:33;91758.84;;;17.50;63.52
20628;BME280;10473;42.734;24.258;2023-05-29T11:07:02;91754.97;;;17.54;63.96
20628;BME280;10473;42.734;24.258;2023-05-29T11:09:34;91759.34;;;17.84;64.69
20628;BME280;10473;42.734;24.258;2023-05-29T11:12:17;91743.28;;;18.03;62.33
20628;BME280;10473;42.734;24.258;2023-05-29T11:15:03;91765.84;;;18.41;62.38
20628;BME280;10473;42.734;24.258;2023-05-29T11:17:32;91748.22;;;18.60;59.21
20628;BME280;10473;42.734;24.258;2023-05-29T11:20:05;91746.38;;;18.89;60.04
20628;BME280;10473;42.734;24.258;2023-05-29T11:22:56;91745.25;;;19.18;59.39
20628;BME280;10473;42.734;24.258;2023-05-29T11:25:28;91740.16;;;19.40;60.79
20628;BME280;10473;42.734;24.258;2023-05-29T11:27:56;91748.00;;;19.63;59.23
20628;BME280;10473;42.734;24.258;2023-05-29T11:30:24;91743.91;;;19.71;58.65
20628;BME280;10473;42.734;24.258;2023-05-29T11:32:52;91759.16;;;19.90;57.11
20628;BME280;10473;42.734;24.258;2023-05-29T11:35:22;91755.25;;;20.07;57.69
20628;BME280;10473;42.734;24.258;2023-05-29T11:37:49;91764.22;;;19.88;56.63
20628;BME280;10473;42.734;24.258;2023-05-29T11:40:18;91757.25;;;19.90;55.80
20628;BME280;10473;42.734;24.258;2023-05-29T11:42:46;91758.50;;;19.86;55.08
20628;BME280;10473;42.734;24.258;2023-05-29T11:45:16;91755.63;;;19.93;55.31
20628;BME280;10473;42.734;24.258;2023-05-29T11:47:53;91758.31;;;19.93;56.05
20628;BME280;10473;42.734;24.258;2023-05-29T11:50:22;91748.38;;;19.77;56.42
20628;BME280;10473;42.734;24.258;2023-05-29T11:52:50;91727.75;;;19.87;56.92
20628;BME280;10473;42.734;24.258;2023-05-29T11:55:20;91744.66;;;20.00;55.17
20628;BME280;10473;42.734;24.258;2023-05-29T11:57:50;91743.47;;;20.17;55.58
20628;BME280;10473;42.734;24.258;2023-05-29T12:00:20;91740.94;;;20.10;55.18
20628;BME280;10473;42.734;24.258;2023-05-29T12:02:48;91741.91;;;19.75;54.35
20628;BME280;10473;42.734;24.258;2023-05-29T12:05:16;91654.09;;;18.67;55.44
20628;BME280;10473;42.734;24.258;2023-05-29T12:07:49;91723.09;;;19.14;55.61
20628;BME280;10473;42.734;24.258;2023-05-29T12:10:20;91700.72;;;19.05;57.55
20628;BME280;10473;42.734;24.258;2023-05-29T12:12:50;91709.50;;;19.21;56.95
20628;BME280;10473;42.734;24.258;2023-05-29T12:15:19;91708.56;;;19.44;55.77
20628;BME280;10473;42.734;24.258;2023-05-29T12:17:48;91711.09;;;19.63;55.74
20628;BME280;10473;42.734;24.258;2023-05-29T12:20:17;91700.25;;;19.67;56.54
20628;BME280;10473;42.734;24.258;2023-05-29T12:22:46;91708.78;;;19.49;56.54
20628;BME280;10473;42.734;24.258;2023-05-29T12:25:15;91683.16;;;19.32;57.59
20628;BME280;10473;42.734;24.258;2023-05-29T12:27:46;91695.13;;;19.44;57.34
20628;BME280;10473;42.734;24.258;2023-05-29T12:30:19;91692.38;;;19.31;58.29
20628;BME280;10473;42.734;24.258;2023-05-29T12:32:48;91688.72;;;19.25;57.09
20628;BME280;10473;42.734;24.258;2023-05-29T12:35:17;91698.50;;;19.16;57.45
20628;BME280;10473;42.734;24.258;2023-05-29T12:37:46;91698.19;;;19.14;57.32
20628;BME280;10473;42.734;24.258;2023-05-29T12:40:14;91704.06;;;19.09;57.04
20628;BME280;10473;42.734;24.258;2023-05-29T12:42:43;91715.28;;;19.20;58.19
20628;BME280;10473;42.734;24.258;2023-05-29T12:45:12;91710.19;;;19.09;56.94
20628;BME280;10473;42.734;24.258;2023-05-29T12:47:49;91701.72;;;18.95;58.02
20628;BME280;10473;42.734;24.258;2023-05-29T12:50:22;91701.91;;;19.04;58.15
20628;BME280;10473;42.734;24.258;2023-05-29T12:52:57;91705.72;;;19.03;56.98
20628;BME280;10473;42.734;24.258;2023-05-29T12:55:27;91705.56;;;19.10;56.84
20628;BME280;10473;42.734;24.258;2023-05-29T12:57:56;91710.94;;;19.26;55.52
20628;BME280;10473;42.734;24.258;2023-05-29T13:00:25;91716.81;;;19.21;55.38
20628;BME280;10473;42.734;24.258;2023-05-29T13:02:53;91708.41;;;19.19;56.21
20628;BME280;10473;42.734;24.258;2023-05-29T13:05:21;91700.53;;;19.28;55.48
20628;BME280;10473;42.734;24.258;2023-05-29T13:07:49;91707.94;;;19.52;55.61
20628;BME280;10473;42.734;24.258;2023-05-29T13:10:17;91715.06;;;19.59;55.11